VHCWO YMML-YSSY
Flight info
| Callsign | VHCWO |
|---|---|
| Flight time | 1h 4m |
| Altitude | 39000 |
| Route | DOSEL2/34 DOSEL Y59 RIVET RIVET4 |
| Aircraft | C750/M-SBDE3FGHRWXY/S |
Departure
| Time | 2026-05-04 08:42 |
|---|---|
| Airport | Melbourne Airport (YMML) |
Arrival
| Time | 2026-05-04 09:46 |
|---|---|
| Airport | Sydney Kingsford Smith International Airport (YSSY) |
| Time | Latitude | Longitude | Altitude | Speed | Heading |
|---|---|---|---|---|---|
| 2026-05-04 08:16 | -37.68740 | 144.85416 | 348 ft | 0 kts | 81° |
| 2026-05-04 08:31 | -37.68748 | 144.85385 | 350 ft | 4 kts | 343° |
| 2026-05-04 08:33 | -37.68434 | 144.85181 | 351 ft | 28 kts | 300° |
| 2026-05-04 08:33 | -37.68408 | 144.84929 | 347 ft | 31 kts | 274° |
| 2026-05-04 08:35 | -37.68551 | 144.84234 | 337 ft | 0 kts | 264° |
| 2026-05-04 08:40 | -37.68552 | 144.84215 | 317 ft | 14 kts | 265° |
| 2026-05-04 08:40 | -37.68477 | 144.84080 | 345 ft | 19 kts | 352° |
| 2026-05-04 08:41 | -37.68459 | 144.84077 | 347 ft | 0 kts | 351° |
| 2026-05-04 08:41 | -37.68448 | 144.84075 | 346 ft | 17 kts | 351° |
| 2026-05-04 08:41 | -37.67910 | 144.83977 | 359 ft | 127 kts | 352° |
| 2026-05-04 08:41 | -37.66943 | 144.83809 | 743 ft | 153 kts | 353° |
| 2026-05-04 08:42 | -37.65802 | 144.83594 | 1233 ft | 183 kts | 349° |
| 2026-05-04 08:42 | -37.64427 | 144.83301 | 1760 ft | 214 kts | 347° |
| 2026-05-04 08:42 | -37.62867 | 144.82992 | 2258 ft | 229 kts | 348° |
| 2026-05-04 08:42 | -37.61289 | 144.82701 | 2740 ft | 230 kts | 347° |
| 2026-05-04 08:43 | -37.59683 | 144.82468 | 3172 ft | 239 kts | 353° |
| 2026-05-04 08:43 | -37.58055 | 144.82937 | 3663 ft | 245 kts | 16° |
| 2026-05-04 08:43 | -37.56502 | 144.83889 | 4606 ft | 253 kts | 18° |
| 2026-05-04 08:43 | -37.54883 | 144.84862 | 5510 ft | 261 kts | 18° |
| 2026-05-04 08:44 | -37.53228 | 144.85858 | 6463 ft | 267 kts | 19° |
| 2026-05-04 08:44 | -37.51527 | 144.86893 | 7346 ft | 274 kts | 19° |
| 2026-05-04 08:46 | -37.39837 | 144.98527 | 12189 ft | 363 kts | 51° |
| 2026-05-04 08:46 | -37.38367 | 145.01091 | 13019 ft | 368 kts | 50° |
| 2026-05-04 08:46 | -37.36851 | 145.03707 | 13850 ft | 373 kts | 51° |
| 2026-05-04 08:46 | -37.35339 | 145.06395 | 14612 ft | 377 kts | 51° |
| 2026-05-04 08:47 | -37.33823 | 145.09109 | 15376 ft | 381 kts | 51° |
| 2026-05-04 08:47 | -37.32273 | 145.11843 | 16162 ft | 385 kts | 51° |
| 2026-05-04 08:47 | -37.30705 | 145.14590 | 16967 ft | 389 kts | 51° |
| 2026-05-04 08:47 | -37.29123 | 145.17377 | 17791 ft | 394 kts | 51° |
| 2026-05-04 08:48 | -37.27535 | 145.20183 | 18576 ft | 399 kts | 51° |
| 2026-05-04 08:48 | -37.25916 | 145.23034 | 19325 ft | 403 kts | 50° |
| 2026-05-04 08:48 | -37.24272 | 145.25920 | 20087 ft | 407 kts | 50° |
| 2026-05-04 08:48 | -37.22613 | 145.28830 | 20872 ft | 411 kts | 50° |
| 2026-05-04 08:49 | -37.21509 | 145.30770 | 21399 ft | 413 kts | 50° |
| 2026-05-04 08:50 | -37.10473 | 145.48444 | 25973 ft | 406 kts | 24° |
| 2026-05-04 08:50 | -37.07939 | 145.49959 | 26594 ft | 402 kts | 15° |
| 2026-05-04 08:51 | -37.05329 | 145.51222 | 27270 ft | 404 kts | 12° |
| 2026-05-04 08:51 | -37.02679 | 145.52437 | 27954 ft | 406 kts | 12° |
| 2026-05-04 08:51 | -37.00010 | 145.53659 | 28645 ft | 410 kts | 11° |
| 2026-05-04 08:51 | -36.97328 | 145.54908 | 29341 ft | 413 kts | 11° |
| 2026-05-04 08:52 | -36.94641 | 145.56191 | 30143 ft | 413 kts | 11° |
| 2026-05-04 08:52 | -36.91957 | 145.57505 | 30827 ft | 414 kts | 12° |
| 2026-05-04 08:52 | -36.89276 | 145.58834 | 31481 ft | 414 kts | 12° |
| 2026-05-04 08:52 | -36.86597 | 145.60165 | 32149 ft | 414 kts | 12° |
| 2026-05-04 08:53 | -36.83935 | 145.61557 | 32796 ft | 421 kts | 16° |
| 2026-05-04 08:54 | -36.73235 | 145.85936 | 37161 ft | 461 kts | 51° |
| 2026-05-04 08:55 | -36.71470 | 145.89269 | 37659 ft | 461 kts | 48° |
| 2026-05-04 08:55 | -36.69700 | 145.92568 | 38158 ft | 466 kts | 50° |
| 2026-05-04 08:55 | -36.68082 | 145.96112 | 38662 ft | 473 kts | 56° |
| 2026-05-04 08:55 | -36.66591 | 145.99837 | 39019 ft | 479 kts | 57° |
| 2026-05-04 08:57 | -36.54253 | 146.27467 | 39032 ft | 556 kts | 54° |
| 2026-05-04 09:01 | -36.27330 | 146.87154 | 39035 ft | 567 kts | 55° |
| 2026-05-04 09:01 | -36.23454 | 146.95666 | 39033 ft | 565 kts | 55° |
| 2026-05-04 09:02 | -36.19602 | 147.04079 | 39039 ft | 564 kts | 54° |
| 2026-05-04 09:02 | -36.15279 | 147.12071 | 39040 ft | 555 kts | 46° |
| 2026-05-04 09:03 | -36.10592 | 147.19681 | 39045 ft | 556 kts | 47° |
| 2026-05-04 09:03 | -36.06010 | 147.27392 | 39046 ft | 555 kts | 47° |
| 2026-05-04 09:04 | -36.01346 | 147.35005 | 39048 ft | 556 kts | 46° |
| 2026-05-04 09:04 | -35.96729 | 147.42673 | 39051 ft | 556 kts | 46° |
| 2026-05-04 09:05 | -35.92066 | 147.50303 | 39056 ft | 557 kts | 46° |
| 2026-05-04 09:05 | -35.87422 | 147.57944 | 39062 ft | 557 kts | 46° |
| 2026-05-04 09:06 | -35.82762 | 147.65563 | 39059 ft | 556 kts | 46° |
| 2026-05-04 09:08 | -35.64084 | 147.95973 | 39068 ft | 557 kts | 46° |
| 2026-05-04 09:08 | -35.59381 | 148.03579 | 39071 ft | 562 kts | 46° |
| 2026-05-04 09:09 | -35.54647 | 148.11235 | 39076 ft | 563 kts | 46° |
| 2026-05-04 09:09 | -35.49907 | 148.18873 | 39072 ft | 563 kts | 46° |
| 2026-05-04 09:10 | -35.45159 | 148.26509 | 39077 ft | 563 kts | 46° |
| 2026-05-04 09:10 | -35.40402 | 148.34144 | 39072 ft | 562 kts | 45° |
| 2026-05-04 09:11 | -35.35671 | 148.41719 | 39077 ft | 562 kts | 45° |
| 2026-05-04 09:11 | -35.30903 | 148.49338 | 39079 ft | 562 kts | 45° |
| 2026-05-04 09:12 | -35.26141 | 148.56931 | 39072 ft | 562 kts | 45° |
| 2026-05-04 09:14 | -35.07870 | 148.85906 | 39067 ft | 561 kts | 45° |
| 2026-05-04 09:14 | -35.03099 | 148.93435 | 39064 ft | 560 kts | 45° |
| 2026-05-04 09:15 | -34.98320 | 149.00942 | 39058 ft | 558 kts | 44° |
| 2026-05-04 09:15 | -34.92789 | 149.07325 | 39061 ft | 539 kts | 28° |
| 2026-05-04 09:17 | -34.62659 | 149.22499 | 39079 ft | 519 kts | 12° |
| 2026-05-04 09:18 | -34.55919 | 149.25732 | 39072 ft | 527 kts | 18° |
| 2026-05-04 09:18 | -34.49458 | 149.30095 | 39077 ft | 533 kts | 23° |
| 2026-05-04 09:19 | -34.43104 | 149.34746 | 39078 ft | 533 kts | 23° |
| 2026-05-04 09:19 | -34.37303 | 149.40487 | 38625 ft | 539 kts | 38° |
| 2026-05-04 09:20 | -34.34938 | 149.44000 | 37759 ft | 535 kts | 47° |
| 2026-05-04 09:20 | -34.33040 | 149.47834 | 36924 ft | 529 kts | 56° |
| 2026-05-04 09:20 | -34.31627 | 149.51912 | 36128 ft | 522 kts | 64° |
| 2026-05-04 09:20 | -34.30642 | 149.56033 | 35399 ft | 513 kts | 69° |
| 2026-05-04 09:21 | -34.29774 | 149.60182 | 34697 ft | 504 kts | 69° |
| 2026-05-04 09:21 | -34.28833 | 149.64248 | 33995 ft | 500 kts | 66° |
| 2026-05-04 09:21 | -34.27828 | 149.68269 | 33211 ft | 501 kts | 66° |
| 2026-05-04 09:21 | -34.26857 | 149.72332 | 32453 ft | 506 kts | 68° |
| 2026-05-04 09:22 | -34.25931 | 149.76463 | 31714 ft | 509 kts | 68° |
| 2026-05-04 09:22 | -34.24987 | 149.80592 | 30882 ft | 510 kts | 67° |
| 2026-05-04 09:22 | -34.23998 | 149.84706 | 30059 ft | 506 kts | 67° |
| 2026-05-04 09:22 | -34.23025 | 149.88768 | 29091 ft | 499 kts | 67° |
| 2026-05-04 09:23 | -34.22091 | 149.92781 | 28165 ft | 491 kts | 68° |
| 2026-05-04 09:23 | -34.21175 | 149.96721 | 27252 ft | 483 kts | 67° |
| 2026-05-04 09:23 | -34.20255 | 150.00591 | 26374 ft | 475 kts | 67° |
| 2026-05-04 09:23 | -34.19342 | 150.04400 | 25515 ft | 468 kts | 67° |
| 2026-05-04 09:25 | -34.13742 | 150.29769 | 19491 ft | 424 kts | 70° |
| 2026-05-04 09:25 | -34.12993 | 150.33177 | 18674 ft | 416 kts | 69° |
| 2026-05-04 09:26 | -34.12248 | 150.36533 | 17796 ft | 409 kts | 70° |
| 2026-05-04 09:26 | -34.11542 | 150.39782 | 16911 ft | 402 kts | 70° |
| 2026-05-04 09:26 | -34.10844 | 150.43021 | 16029 ft | 395 kts | 70° |
| 2026-05-04 09:26 | -34.10149 | 150.46195 | 15174 ft | 388 kts | 70° |
| 2026-05-04 09:27 | -34.09458 | 150.49324 | 14344 ft | 383 kts | 70° |
| 2026-05-04 09:27 | -34.08783 | 150.52403 | 13491 ft | 378 kts | 70° |
| 2026-05-04 09:27 | -34.08127 | 150.55449 | 12590 ft | 373 kts | 71° |
| 2026-05-04 09:27 | -34.07497 | 150.58433 | 11713 ft | 360 kts | 71° |
| 2026-05-04 09:28 | -34.06884 | 150.61305 | 10863 ft | 348 kts | 71° |
| 2026-05-04 09:28 | -34.06277 | 150.64094 | 10032 ft | 339 kts | 70° |
| 2026-05-04 09:28 | -34.05687 | 150.66814 | 9201 ft | 330 kts | 71° |
| 2026-05-04 09:28 | -34.05136 | 150.69398 | 9003 ft | 303 kts | 70° |
| 2026-05-04 09:29 | -34.04630 | 150.71760 | 8986 ft | 283 kts | 70° |
| 2026-05-04 09:29 | -34.04128 | 150.74041 | 8990 ft | 283 kts | 69° |
| 2026-05-04 09:29 | -34.03610 | 150.76385 | 8995 ft | 294 kts | 70° |
| 2026-05-04 09:29 | -34.03089 | 150.78741 | 8953 ft | 295 kts | 68° |
| 2026-05-04 09:30 | -34.02484 | 150.81174 | 8342 ft | 308 kts | 69° |
| 2026-05-04 09:30 | -34.01939 | 150.83666 | 7836 ft | 304 kts | 70° |
| 2026-05-04 09:30 | -34.01398 | 150.86096 | 7344 ft | 296 kts | 69° |
| 2026-05-04 09:30 | -34.00830 | 150.88472 | 6849 ft | 290 kts | 68° |
| 2026-05-04 09:31 | -34.00275 | 150.90782 | 6360 ft | 285 kts | 68° |
| 2026-05-04 09:31 | -33.99740 | 150.93070 | 5975 ft | 278 kts | 68° |
| 2026-05-04 09:31 | -33.99239 | 150.95243 | 5985 ft | 264 kts | 68° |
| 2026-05-04 09:31 | -33.98731 | 150.97380 | 5993 ft | 270 kts | 68° |
| 2026-05-04 09:32 | -33.98289 | 150.99639 | 5998 ft | 280 kts | 71° |
| 2026-05-04 09:32 | -33.97803 | 151.01910 | 5996 ft | 281 kts | 69° |
| 2026-05-04 09:34 | -33.98391 | 151.17620 | 6012 ft | 305 kts | 132° |
| 2026-05-04 09:34 | -33.99850 | 151.19440 | 6006 ft | 305 kts | 133° |
| 2026-05-04 09:34 | -34.01323 | 151.21272 | 6001 ft | 303 kts | 133° |
| 2026-05-04 09:34 | -34.02792 | 151.23094 | 5993 ft | 304 kts | 133° |
| 2026-05-04 09:35 | -34.04291 | 151.24948 | 5621 ft | 314 kts | 132° |
| 2026-05-04 09:35 | -34.05822 | 151.26826 | 5138 ft | 312 kts | 133° |
| 2026-05-04 09:35 | -34.07334 | 151.28662 | 4633 ft | 304 kts | 133° |
| 2026-05-04 09:35 | -34.08815 | 151.30448 | 4125 ft | 296 kts | 133° |
| 2026-05-04 09:37 | -34.18457 | 151.41824 | 1987 ft | 269 kts | 133° |
| 2026-05-04 09:37 | -34.20129 | 151.42914 | 1897 ft | 281 kts | 165° |
| 2026-05-04 09:38 | -34.22044 | 151.42742 | 1878 ft | 276 kts | 201° |
| 2026-05-04 09:38 | -34.23519 | 151.41355 | 1881 ft | 267 kts | 238° |
| 2026-05-04 09:38 | -34.24183 | 151.39330 | 1992 ft | 256 kts | 261° |
| 2026-05-04 09:38 | -34.24556 | 151.37357 | 1998 ft | 228 kts | 263° |
| 2026-05-04 09:39 | -34.24896 | 151.35561 | 1982 ft | 213 kts | 263° |
| 2026-05-04 09:39 | -34.25144 | 151.33820 | 1941 ft | 210 kts | 274° |
| 2026-05-04 09:39 | -34.24608 | 151.32265 | 1886 ft | 200 kts | 314° |
| 2026-05-04 09:39 | -34.23580 | 151.31136 | 1999 ft | 200 kts | 321° |
| 2026-05-04 09:40 | -34.22565 | 151.29986 | 1999 ft | 198 kts | 319° |
| 2026-05-04 09:40 | -34.21565 | 151.28839 | 1987 ft | 200 kts | 320° |
| 2026-05-04 09:40 | -34.20539 | 151.27680 | 1998 ft | 202 kts | 320° |
| 2026-05-04 09:40 | -34.19519 | 151.26530 | 1989 ft | 199 kts | 321° |
| 2026-05-04 09:41 | -34.18518 | 151.25409 | 1991 ft | 198 kts | 321° |
| 2026-05-04 09:42 | -34.09319 | 151.22644 | 1971 ft | 172 kts | 347° |
| 2026-05-04 09:43 | -34.08167 | 151.22338 | 1985 ft | 168 kts | 348° |
| 2026-05-04 09:43 | -34.07020 | 151.22035 | 1978 ft | 170 kts | 347° |
| 2026-05-04 09:43 | -34.05849 | 151.21724 | 1769 ft | 171 kts | 348° |
| 2026-05-04 09:43 | -34.04707 | 151.21421 | 1544 ft | 166 kts | 349° |
| 2026-05-04 09:44 | -34.03650 | 151.21154 | 1301 ft | 143 kts | 348° |
| 2026-05-04 09:44 | -34.02709 | 151.20903 | 1062 ft | 133 kts | 348° |
| 2026-05-04 09:44 | -34.01834 | 151.20614 | 926 ft | 128 kts | 346° |
| 2026-05-04 09:46 | -33.96108 | 151.19129 | 25 ft | 65 kts | 348° |
| 2026-05-04 09:46 | -33.95860 | 151.19013 | 28 ft | 33 kts | 321° |
| 2026-05-04 09:46 | -33.95788 | 151.18940 | 23 ft | 7 kts | 319° |
| 2026-05-04 09:47 | -33.95784 | 151.18937 | 23 ft | 0 kts | 319° |
| 2026-05-04 09:47 | -33.95776 | 151.18928 | 24 ft | 9 kts | 319° |
| 2026-05-04 09:49 | -33.95172 | 151.18133 | 23 ft | 0 kts | 258° |
| 2026-05-04 09:53 | -33.95173 | 151.18124 | 23 ft | 5 kts | 257° |
| 2026-05-04 09:53 | -33.95182 | 151.18000 | 22 ft | 21 kts | 293° |
| 2026-05-04 09:53 | -33.95035 | 151.17929 | 21 ft | 28 kts | 349° |
| 2026-05-04 09:54 | -33.94857 | 151.17882 | 18 ft | 16 kts | 344° |
| 2026-05-04 09:54 | -33.94730 | 151.17851 | 21 ft | 21 kts | 349° |
| 2026-05-04 09:54 | -33.94574 | 151.17809 | 22 ft | 24 kts | 347° |
| 2026-05-04 09:54 | -33.94389 | 151.17755 | 20 ft | 30 kts | 345° |
| 2026-05-04 09:55 | -33.94173 | 151.17689 | 18 ft | 35 kts | 346° |
| 2026-05-04 09:55 | -33.93943 | 151.17625 | 16 ft | 27 kts | 348° |
| 2026-05-04 09:55 | -33.93853 | 151.17741 | 19 ft | 22 kts | 75° |
| 2026-05-04 09:55 | -33.93807 | 151.17925 | 25 ft | 24 kts | 72° |
| 2026-05-04 09:56 | -33.93759 | 151.18125 | 27 ft | 27 kts | 74° |
| 2026-05-04 09:56 | -33.93702 | 151.18364 | 27 ft | 32 kts | 74° |
| 2026-05-04 09:56 | -33.93637 | 151.18641 | 27 ft | 37 kts | 74° |
| 2026-05-04 09:56 | -33.93560 | 151.18843 | 27 ft | 22 kts | 19° |
| 2026-05-04 09:57 | -33.93449 | 151.18870 | 27 ft | 9 kts | 7° |
| 2026-05-04 09:57 | -33.93433 | 151.18842 | 27 ft | 3 kts | 247° |
| 2026-05-04 09:57 | -33.93449 | 151.18835 | 27 ft | 3 kts | 193° |
| 2026-05-04 09:57 | -33.93457 | 151.18833 | 27 ft | 0 kts | 192° |